Time;durP1;ratioP1;P1;durP2;ratioP2;P2;SDS_P1;SDS_P2;PMS_P1;PMS_P2;Temp;Humidity;BMP_temperature;BMP_pressure;BME280_temperature;BME280_humidity;BME280_pressure;Samples;Min_cycle;Max_cycle;Signal;HPM_P1;HPM_P2
2023/08/11 00:00:04;;;;;;;5.10;3.55;;;;;;;17.99;53.30;100837.28;5027586;28;20333;-67
2023/08/11 00:02:32;;;;;;;4.25;3.22;;;;;;;17.98;53.47;100841.66;5030012;28;20626;-67
2023/08/11 00:05:00;;;;;;;5.07;3.70;;;;;;;17.95;53.49;100846.97;5029794;28;20631;-67
2023/08/11 00:07:28;;;;;;;4.78;3.60;;;;;;;17.95;53.69;100852.16;5030958;28;20242;-66
2023/08/11 00:09:56;;;;;;;5.47;3.78;;;;;;;17.93;53.56;100838.34;5030648;28;20595;-67
2023/08/11 00:12:24;;;;;;;5.72;3.72;;;;;;;17.91;53.65;100845.34;5029994;28;20278;-68
2023/08/11 00:14:53;;;;;;;6.53;3.80;;;;;;;17.88;53.86;100845.44;5028743;28;20205;-64
2023/08/11 00:17:22;;;;;;;6.07;3.80;;;;;;;17.88;54.04;100844.56;5029565;28;20194;-66
2023/08/11 00:19:50;;;;;;;7.10;3.60;;;;;;;17.89;54.05;100841.06;5028501;28;20258;-66
2023/08/11 00:22:18;;;;;;;6.25;3.67;;;;;;;17.89;54.10;100846.28;5027190;28;20202;-68
2023/08/11 00:24:46;;;;;;;6.13;4.07;;;;;;;17.82;54.21;100841.25;5029258;28;20246;-67
2023/08/11 00:27:14;;;;;;;5.28;3.85;;;;;;;17.75;54.38;100841.44;5026830;28;20289;-68
2023/08/11 00:29:42;;;;;;;7.55;4.03;;;;;;;17.64;54.50;100836.53;5030113;28;20289;-67
2023/08/11 00:32:10;;;;;;;6.18;3.58;;;;;;;17.62;54.73;100833.09;5027921;28;20217;-68
2023/08/11 00:34:40;;;;;;;4.72;3.20;;;;;;;17.58;55.24;100831.47;5030059;28;20295;-69
2023/08/11 00:37:07;;;;;;;4.90;3.60;;;;;;;17.55;55.04;100836.78;5028626;28;20203;-66
2023/08/11 00:39:36;;;;;;;8.15;3.92;;;;;;;17.51;55.24;100835.16;5029305;28;20206;-69
2023/08/11 00:42:05;;;;;;;4.65;3.58;;;;;;;17.49;55.48;100836.94;5023151;28;20207;-67
2023/08/11 00:44:33;;;;;;;6.78;3.50;;;;;;;17.49;55.44;100829.13;5029183;28;20276;-69
2023/08/11 00:47:01;;;;;;;8.57;3.75;;;;;;;17.47;55.46;100831.78;5021144;28;20237;-68
2023/08/11 00:49:29;;;;;;;5.32;3.78;;;;;;;17.42;55.37;100831.06;5030539;28;20202;-68
2023/08/11 00:51:59;;;;;;;4.28;3.25;;;;;;;17.40;55.65;100832.84;5030378;28;20227;-71
2023/08/11 00:54:28;;;;;;;6.80;3.83;;;;;;;17.38;55.68;100832.91;5028705;28;20213;-66
2023/08/11 00:56:56;;;;;;;7.03;3.90;;;;;;;17.38;55.65;100826.84;5028127;28;20205;-67
2023/08/11 00:59:24;;;;;;;5.97;3.88;;;;;;;17.38;55.61;100837.25;5030114;28;20302;-66
2023/08/11 01:01:52;;;;;;;6.65;3.97;;;;;;;17.31;55.99;100828.75;5025120;28;20230;-69
2023/08/11 01:04:20;;;;;;;6.78;3.83;;;;;;;17.32;56.05;100829.59;5025060;28;20298;-65
2023/08/11 01:06:58;;;;;;;4.28;3.88;;;;;;;17.28;56.25;100827.97;5028618;28;20290;-67
2023/08/11 01:09:39;;;;;;;8.43;4.00;;;;;;;17.25;56.20;100831.50;5025396;28;20662;-66
2023/08/11 01:12:16;;;;;;;4.95;3.80;;;;;;;17.20;56.34;100829.94;5028725;28;20222;-68
2023/08/11 01:14:53;;;;;;;5.03;3.90;;;;;;;17.16;56.46;100826.56;5029356;28;20198;-68
2023/08/11 01:17:22;;;;;;;5.38;3.42;;;;;;;17.14;56.29;100830.94;5020133;28;20210;-66
2023/08/11 01:19:51;;;;;;;5.03;3.20;;;;;;;17.11;56.33;100828.41;5030064;28;20668;-66
2023/08/11 01:22:24;;;;;;;5.45;3.80;;;;;;;17.07;56.61;100829.38;5024796;28;20206;-68
2023/08/11 01:24:55;;;;;;;6.70;3.80;;;;;;;17.04;56.48;100829.44;5028705;28;20261;-66
2023/08/11 01:27:23;;;;;;;3.95;3.05;;;;;;;17.03;56.61;100827.75;5029795;28;20585;-68
2023/08/11 01:29:51;;;;;;;4.85;3.58;;;;;;;17.01;56.68;100825.19;5029618;28;20249;-68
2023/08/11 01:32:19;;;;;;;7.53;3.70;;;;;;;17.00;56.67;100820.88;5030000;28;20215;-66
2023/08/11 01:34:47;;;;;;;5.00;3.58;;;;;;;16.98;56.74;100819.22;5029252;28;20301;-67
2023/08/11 01:37:15;;;;;;;5.22;3.47;;;;;;;16.98;56.82;100811.41;5029013;28;20622;-68
2023/08/11 01:39:43;;;;;;;4.38;3.33;;;;;;;17.02;56.74;100813.03;5017011;28;20854;-65
2023/08/11 01:42:13;;;;;;;4.57;3.30;;;;;;;17.05;56.94;100820.78;5024532;28;20649;-67
2023/08/11 01:44:41;;;;;;;6.70;3.63;;;;;;;17.06;56.58;100817.25;5030132;28;20288;-64
2023/08/11 01:47:10;;;;;;;5.18;3.60;;;;;;;17.06;56.65;100815.50;5022658;28;20213;-67
2023/08/11 01:49:38;;;;;;;5.43;3.38;;;;;;;17.06;56.88;100819.88;5029489;28;20563;-66
2023/08/11 01:52:08;;;;;;;4.25;3.13;;;;;;;17.00;57.05;100820.88;5033331;28;20214;-66
2023/08/11 01:54:36;;;;;;;9.05;4.00;;;;;;;16.97;57.16;100817.47;5033231;28;20253;-68
2023/08/11 01:57:05;;;;;;;3.80;3.40;;;;;;;16.92;57.05;100817.59;5028681;28;20293;-66
2023/08/11 01:59:35;;;;;;;4.53;3.53;;;;;;;16.85;57.37;100816.91;5030527;28;20217;-65
2023/08/11 02:02:03;;;;;;;4.45;3.90;;;;;;;16.84;57.59;100812.59;5028064;28;20286;-66
2023/08/11 02:04:32;;;;;;;5.72;3.60;;;;;;;16.88;57.92;100814.22;5032683;28;20226;-69
2023/08/11 02:07:00;;;;;;;4.82;3.38;;;;;;;16.90;57.46;100825.47;5032803;28;20206;-67
2023/08/11 02:09:28;;;;;;;4.20;3.25;;;;;;;16.92;57.55;100824.56;5030035;28;20215;-66
2023/08/11 02:11:56;;;;;;;5.13;3.40;;;;;;;16.88;57.28;100826.38;5029629;28;20602;-59
2023/08/11 02:14:24;;;;;;;4.43;3.38;;;;;;;16.84;57.33;100825.59;5031371;28;20728;-62
2023/08/11 02:16:54;;;;;;;6.57;3.35;;;;;;;16.84;57.71;100829.97;5028314;28;20302;-59
2023/08/11 02:19:21;;;;;;;6.90;3.90;;;;;;;16.82;57.26;100829.97;5028222;28;20195;-58
2023/08/11 02:21:49;;;;;;;4.43;3.58;;;;;;;16.79;56.99;100824.88;5033312;28;20203;-58
2023/08/11 02:24:20;;;;;;;10.63;3.80;;;;;;;16.75;57.12;100830.19;5030634;28;20241;-59
2023/08/11 02:26:48;;;;;;;4.38;3.28;;;;;;;16.72;57.61;100836.28;5033486;28;20210;-62
2023/08/11 02:29:15;;;;;;;5.63;3.60;;;;;;;16.75;57.57;100832.78;5024017;28;20250;-61
2023/08/11 02:31:44;;;;;;;5.35;3.22;;;;;;;16.74;57.26;100831.06;5022869;28;20207;-62
2023/08/11 02:34:14;;;;;;;7.45;3.92;;;;;;;16.73;57.40;100824.13;5031227;28;20230;-59
2023/08/11 02:36:42;;;;;;;4.93;3.75;;;;;;;16.73;57.86;100821.53;5032016;28;20302;-60
2023/08/11 02:39:10;;;;;;;4.90;3.42;;;;;;;16.72;58.25;100825.88;5028867;28;20214;-59
2023/08/11 02:41:38;;;;;;;4.55;3.67;;;;;;;16.75;58.19;100828.44;5032393;28;20312;-60
2023/08/11 02:44:06;;;;;;;4.97;3.20;;;;;;;16.75;58.05;100835.38;5028843;28;20245;-60
2023/08/11 02:46:34;;;;;;;4.65;3.72;;;;;;;16.71;57.40;100831.97;5030784;28;20214;-61
2023/08/11 02:49:02;;;;;;;6.45;4.10;;;;;;;16.69;57.99;100838.97;5032547;28;20325;-61
2023/08/11 02:51:31;;;;;;;10.30;4.20;;;;;;;16.67;58.55;100836.38;5030763;28;20653;-59
2023/08/11 02:53:59;;;;;;;6.47;3.80;;;;;;;16.64;59.49;100839.09;5026622;28;20230;-59
2023/08/11 02:56:27;;;;;;;7.32;3.63;;;;;;;16.57;60.02;100847.94;5030332;28;20217;-60
2023/08/11 02:58:56;;;;;;;5.60;3.70;;;;;;;16.57;60.62;100847.03;5031746;28;20207;-60
2023/08/11 03:01:25;;;;;;;5.05;3.80;;;;;;;16.50;60.58;100842.91;5028287;28;20206;-62
2023/08/11 03:03:53;;;;;;;6.20;3.72;;;;;;;16.42;60.18;100843.06;5031184;28;20206;-58
2023/08/11 03:06:21;;;;;;;5.18;4.10;;;;;;;16.40;60.03;100843.09;5027068;28;20203;-59
2023/08/11 03:08:51;;;;;;;5.07;3.67;;;;;;;16.39;59.75;100844.00;5030409;28;20662;-59
2023/08/11 03:11:18;;;;;;;4.57;3.65;;;;;;;16.40;59.86;100850.91;5030591;28;20293;-60
2023/08/11 03:13:47;;;;;;;6.95;3.72;;;;;;;16.40;60.63;100855.25;5031054;28;20388;-60
2023/08/11 03:16:15;;;;;;;4.10;3.58;;;;;;;16.37;61.18;100863.97;5031638;28;20650;-58
2023/08/11 03:18:43;;;;;;;8.80;3.50;;;;;;;16.34;61.77;100863.19;5027951;28;20265;-59
2023/08/11 03:21:11;;;;;;;6.47;3.22;;;;;;;16.29;61.66;100863.28;5026259;28;20218;-62
2023/08/11 03:23:47;;;;;;;8.57;4.07;;;;;;;16.23;62.23;100863.41;5022577;28;20230;-67
2023/08/11 03:26:16;;;;;;;5.40;3.88;;;;;;;16.17;62.25;100860.97;5028942;28;20203;-59
2023/08/11 03:28:44;;;;;;;5.70;3.70;;;;;;;16.16;61.84;100860.13;5029318;28;20202;-64
2023/08/11 03:31:12;;;;;;;4.10;3.53;;;;;;;16.16;60.61;100861.84;5031362;28;20650;-61
2023/08/11 03:33:40;;;;;;;4.78;3.95;;;;;;;16.20;60.48;100855.72;5030666;28;20222;-59
2023/08/11 03:36:08;;;;;;;6.78;4.28;;;;;;;16.24;60.75;100867.75;5029602;28;20572;-63
2023/08/11 03:38:36;;;;;;;5.05;3.83;;;;;;;16.29;60.39;100868.50;5030225;28;20202;-60
2023/08/11 03:41:04;;;;;;;5.00;3.67;;;;;;;16.29;59.85;100865.91;5026589;28;20206;-59
2023/08/11 03:43:33;;;;;;;7.85;4.40;;;;;;;16.31;59.63;100871.94;5029901;28;20199;-68
2023/08/11 03:46:01;;;;;;;5.57;3.97;;;;;;;16.32;59.87;100865.84;5031442;28;20207;-61
2023/08/11 03:48:29;;;;;;;11.95;4.07;;;;;;;16.32;59.04;100865.84;5028748;28;20698;-59
2023/08/11 03:50:59;;;;;;;6.18;4.55;;;;;;;16.31;59.42;100871.06;5030953;28;20210;-59
2023/08/11 03:53:27;;;;;;;6.93;4.03;;;;;;;16.30;58.76;100859.78;5019834;28;20314;-60
2023/08/11 03:55:55;;;;;;;7.72;4.22;;;;;;;16.23;58.76;100863.41;5023925;28;20203;-60
2023/08/11 03:58:23;;;;;;;5.60;3.63;;;;;;;16.20;59.16;100863.50;5031616;28;20651;-59
2023/08/11 04:00:53;;;;;;;5.22;4.25;;;;;;;16.19;59.12;100869.56;5030274;28;20211;-61
2023/08/11 04:03:23;;;;;;;5.72;4.05;;;;;;;16.21;59.23;100867.81;5024894;28;20202;-60
2023/08/11 04:05:51;;;;;;;6.40;3.58;;;;;;;16.25;59.39;100858.19;5026172;28;20234;-61
2023/08/11 04:08:19;;;;;;;6.50;3.40;;;;;;;16.31;58.68;100852.84;5029716;28;20636;-65
2023/08/11 04:10:47;;;;;;;6.10;3.88;;;;;;;16.38;58.70;100854.41;5027657;28;20205;-58
2023/08/11 04:13:15;;;;;;;5.72;3.88;;;;;;;16.46;58.50;100852.53;5029617;28;20202;-59
2023/08/11 04:15:45;;;;;;;8.02;3.78;;;;;;;16.56;58.31;100854.00;5027701;28;20206;-61
2023/08/11 04:18:17;;;;;;;5.38;3.65;;;;;;;16.64;57.92;100851.22;5026567;28;20665;-63
2023/08/11 04:20:46;;;;;;;5.75;4.10;;;;;;;16.64;57.94;100856.41;5029534;28;20211;-63
2023/08/11 04:23:14;;;;;;;7.13;3.60;;;;;;;16.66;58.14;100850.31;5029597;28;20289;-65
2023/08/11 04:25:43;;;;;;;7.43;4.25;;;;;;;16.76;57.89;100856.19;5030190;28;20616;-65
2023/08/11 04:28:12;;;;;;;8.43;3.97;;;;;;;16.83;57.78;100856.91;5025412;28;20701;-65
2023/08/11 04:30:40;;;;;;;7.35;3.72;;;;;;;16.88;57.54;100855.88;5023768;28;20700;-66
2023/08/11 04:33:09;;;;;;;10.20;4.22;;;;;;;16.94;57.43;100854.00;5021580;28;20203;-68
2023/08/11 04:35:38;;;;;;;8.68;4.00;;;;;;;17.01;57.33;100865.97;5029232;28;20705;-68
2023/08/11 04:38:06;;;;;;;13.57;4.22;;;;;;;17.07;57.19;100865.81;5024070;28;20211;-68
2023/08/11 04:40:35;;;;;;;5.63;4.15;;;;;;;17.11;56.90;100862.25;5026620;28;20649;-66
2023/08/11 04:43:04;;;;;;;6.47;4.15;;;;;;;17.12;56.82;100879.56;5027177;28;20253;-67
2023/08/11 04:45:32;;;;;;;8.32;4.20;;;;;;;17.18;56.84;100869.00;5030762;28;20637;-67
2023/08/11 04:48:00;;;;;;;5.15;3.80;;;;;;;17.27;57.11;100874.00;5030773;28;20215;-68
2023/08/11 04:50:28;;;;;;;8.50;4.40;;;;;;;17.35;56.02;100879.88;5029505;28;20739;-68
2023/08/11 04:52:58;;;;;;;13.00;4.97;;;;;;;17.41;55.98;100877.97;5028936;28;20654;-66
2023/08/11 04:55:26;;;;;;;7.78;3.90;;;;;;;17.45;56.07;100880.44;5026981;28;20218;-66
2023/08/11 04:57:54;;;;;;;6.75;4.55;;;;;;;17.55;55.51;100888.91;5027160;28;20205;-64
2023/08/11 05:00:22;;;;;;;5.60;3.53;;;;;;;17.60;55.43;100892.25;5028713;28;20611;-64
2023/08/11 05:02:52;;;;;;;5.90;3.67;;;;;;;17.72;55.58;100886.69;5027436;28;20698;-65
2023/08/11 05:05:21;;;;;;;4.18;3.80;;;;;;;17.91;55.27;100881.00;5024522;28;20202;-59
2023/08/11 05:07:49;;;;;;;7.03;3.88;;;;;;;18.10;54.65;100877.78;5028972;28;20254;-61
2023/08/11 05:10:19;;;;;;;5.50;3.55;;;;;;;18.27;53.89;100874.69;5023640;28;20303;-59
2023/08/11 05:12:47;;;;;;;9.57;4.15;;;;;;;18.47;52.95;100878.44;5025350;28;20207;-64
2023/08/11 05:15:16;;;;;;;5.72;3.70;;;;;;;18.71;52.51;100876.88;5021531;28;20231;-66
2023/08/11 05:17:44;;;;;;;5.43;3.42;;;;;;;19.00;51.68;100886.34;5026371;28;20557;-65
2023/08/11 05:20:14;;;;;;;6.85;4.45;;;;;;;19.22;50.62;100876.03;5031337;28;20260;-66
2023/08/11 05:22:47;;;;;;;5.30;3.90;;;;;;;19.41;50.36;100871.06;5027953;28;20203;-68
2023/08/11 05:25:15;;;;;;;8.18;3.78;;;;;;;19.87;49.28;100870.28;5033959;28;20238;-72
2023/08/11 05:27:45;;;;;;;4.72;3.42;;;;;;;20.90;48.35;100876.78;5032898;28;20253;-70
2023/08/11 05:30:13;;;;;;;7.50;3.63;;;;;;;22.44;44.99;100877.00;5033108;28;20225;-69
2023/08/11 05:32:41;;;;;;;5.88;3.30;;;;;;;24.23;41.46;100878.38;5032785;28;20218;-72
2023/08/11 05:35:10;;;;;;;6.35;3.58;;;;;;;25.86;37.25;100863.66;5028939;28;20268;-72
2023/08/11 05:37:38;;;;;;;5.95;3.80;;;;;;;26.90;34.08;100868.34;5029855;28;20713;-71
2023/08/11 05:40:08;;;;;;;11.27;10.13;;;;;;;27.20;32.93;100859.31;5033915;28;20201;-73
2023/08/11 05:42:36;;;;;;;5.00;3.35;;;;;;;27.24;32.37;100865.25;5036033;28;20727;-69
2023/08/11 05:45:08;;;;;;;4.57;3.30;;;;;;;27.52;32.07;100865.06;5030750;28;20206;-70
2023/08/11 05:47:36;;;;;;;4.72;3.10;;;;;;;28.15;31.21;100865.94;5028946;28;20202;-71
2023/08/11 05:50:05;;;;;;;6.10;3.50;;;;;;;28.64;30.34;100860.53;5031059;28;20210;-70
2023/08/11 05:52:33;;;;;;;4.43;3.30;;;;;;;28.65;30.58;100866.72;5029601;28;20211;-70
2023/08/11 05:55:01;;;;;;;8.65;4.20;;;;;;;28.52;30.49;100866.78;5025469;28;20227;-68
2023/08/11 05:57:29;;;;;;;6.38;3.72;;;;;;;28.30;30.93;100870.13;5030808;28;20249;-64
2023/08/11 05:59:57;;;;;;;4.38;3.47;;;;;;;27.91;31.25;100877.34;5031561;28;20234;-70
2023/08/11 06:02:27;;;;;;;6.65;3.55;;;;;;;27.45;32.09;100874.38;5023672;28;20578;-68
2023/08/11 06:04:55;;;;;;;6.88;3.50;;;;;;;26.96;32.54;100875.03;5028066;28;20211;-68
2023/08/11 06:07:23;;;;;;;5.00;3.00;;;;;;;26.43;33.68;100874.94;5020524;28;20289;-69
2023/08/11 06:09:51;;;;;;;4.97;3.42;;;;;;;25.99;34.20;100870.69;5031206;28;20215;-67
2023/08/11 06:12:19;;;;;;;5.05;3.50;;;;;;;25.64;34.39;100879.94;5032646;28;20230;-67
2023/08/11 06:14:47;;;;;;;7.05;3.45;;;;;;;25.16;35.40;100877.50;5031633;28;20253;-67
2023/08/11 06:17:15;;;;;;;5.85;2.78;;;;;;;24.78;35.40;100874.41;5028998;28;20616;-68
2023/08/11 06:19:45;;;;;;;5.82;2.92;;;;;;;24.42;36.22;100883.50;5028097;28;20316;-66
2023/08/11 06:22:13;;;;;;;5.05;2.83;;;;;;;24.19;36.39;100875.97;5024277;28;20722;-69
2023/08/11 06:24:41;;;;;;;5.93;2.83;;;;;;;24.14;36.37;100884.13;5029104;28;20238;-67
2023/08/11 06:27:09;;;;;;;3.38;2.35;;;;;;;24.08;36.90;100884.44;5024320;28;20199;-67
2023/08/11 06:29:38;;;;;;;4.15;2.72;;;;;;;24.07;36.58;100888.88;5026536;28;20195;-67
2023/08/11 06:32:06;;;;;;;3.40;2.38;;;;;;;23.94;36.36;100893.13;5026238;28;20195;-70
2023/08/11 06:34:34;;;;;;;6.60;2.60;;;;;;;23.83;36.84;100898.97;5033556;28;20245;-68
2023/08/11 06:37:03;;;;;;;4.22;2.35;;;;;;;23.87;36.84;100897.00;5029365;28;20207;-67
2023/08/11 06:39:31;;;;;;;5.97;2.35;;;;;;;24.14;36.94;100897.31;5031342;28;20214;-70
2023/08/11 06:41:59;;;;;;;4.15;2.72;;;;;;;24.52;35.78;100900.50;5034231;28;20210;-69
2023/08/11 06:44:27;;;;;;;7.55;2.05;;;;;;;24.86;35.03;100893.31;5031469;28;20202;-66
2023/08/11 06:46:55;;;;;;;4.85;2.05;;;;;;;25.20;33.52;100896.63;5031654;28;20230;-70
2023/08/11 06:49:23;;;;;;;2.30;1.90;;;;;;;25.68;33.58;100898.13;5030739;28;20303;-70
2023/08/11 06:51:52;;;;;;;2.67;1.98;;;;;;;26.23;32.78;100894.72;5028245;28;20210;-69
2023/08/11 06:54:22;;;;;;;4.13;2.13;;;;;;;26.85;31.57;100896.06;5030082;28;20211;-68
2023/08/11 06:56:50;;;;;;;2.65;1.75;;;;;;;27.54;30.02;100891.41;5033195;28;20701;-66
2023/08/11 06:59:19;;;;;;;3.97;2.17;;;;;;;28.30;29.10;100896.63;5032959;28;20242;-68
2023/08/11 07:01:47;;;;;;;4.97;1.88;;;;;;;29.01;27.60;100888.81;5029918;28;20208;-66
2023/08/11 07:04:15;;;;;;;4.28;2.10;;;;;;;29.93;26.86;100889.69;5023958;28;20214;-65
2023/08/11 07:06:43;;;;;;;3.78;1.88;;;;;;;31.04;25.92;100883.25;5030664;28;21304;-67
2023/08/11 07:09:11;;;;;;;12.18;9.95;;;;;;;32.26;23.93;100878.94;5023403;28;20242;-69
2023/08/11 07:11:41;;;;;;;5.65;2.13;;;;;;;33.41;22.31;100871.88;5024107;28;20199;-68
2023/08/11 07:14:09;;;;;;;4.63;2.20;;;;;;;34.64;21.36;100875.19;5029715;28;20211;-67
2023/08/11 07:16:37;;;;;;;3.88;1.88;;;;;;;35.83;19.37;100873.69;5031732;28;20230;-68
2023/08/11 07:19:05;;;;;;;2.25;1.77;;;;;;;36.44;18.57;100883.22;5025117;28;20246;-69
2023/08/11 07:21:33;;;;;;;3.35;2.15;;;;;;;37.26;17.66;100883.25;5033262;28;20203;-67
2023/08/11 07:24:01;;;;;;;3.28;1.67;;;;;;;38.19;16.95;100875.38;5027851;28;20230;-72
2023/08/11 07:26:30;;;;;;;4.60;1.95;;;;;;;38.87;15.54;100884.50;5024363;28;20293;-67
2023/08/11 07:28:59;;;;;;;2.25;1.88;;;;;;;39.28;15.42;100885.97;5026738;28;20618;-71
2023/08/11 07:31:27;;;;;;;8.13;2.00;;;;;;;39.81;14.87;100882.16;5029140;28;20572;-70
2023/08/11 07:33:55;;;;;;;3.72;1.77;;;;;;;40.22;14.53;100888.91;5022475;28;20301;-67
2023/08/11 07:36:23;;;;;;;3.42;1.85;;;;;;;40.56;14.13;100882.81;5031048;28;20233;-68
2023/08/11 07:38:52;;;;;;;2.58;1.55;;;;;;;40.89;13.55;100876.84;5031278;28;20293;-67
2023/08/11 07:41:26;;;;;;;2.13;1.40;;;;;;;40.85;13.02;100883.69;5023139;28;20232;-69
2023/08/11 07:43:54;;;;;;;3.35;1.42;;;;;;;41.10;12.62;100882.25;5021672;28;20212;-70
2023/08/11 07:46:24;;;;;;;2.03;1.38;;;;;;;41.36;11.98;100880.75;5031339;28;20711;-68
2023/08/11 07:48:52;;;;;;;2.05;1.13;;;;;;;41.17;11.88;100885.81;5024562;28;20210;-66
2023/08/11 07:51:20;;;;;;;1.50;1.40;;;;;;;40.72;12.58;100885.22;5031530;28;20719;-66
2023/08/11 07:53:49;;;;;;;2.60;1.50;;;;;;;40.64;12.67;100888.06;5023982;28;20642;-65
2023/08/11 07:56:17;;;;;;;2.30;1.42;;;;;;;40.78;12.43;100884.47;5030688;28;20240;-67
2023/08/11 07:58:46;;;;;;;1.73;1.42;;;;;;;41.21;12.29;100889.81;5025329;28;20205;-69
2023/08/11 08:01:14;;;;;;;1.13;1.00;;;;;;;41.58;11.22;100876.94;5031450;28;20202;-70
2023/08/11 08:03:43;;;;;;;2.33;1.55;;;;;;;41.41;11.95;100884.53;5030156;28;20210;-70
2023/08/11 08:06:12;;;;;;;3.38;1.63;;;;;;;41.31;12.44;100878.59;5029420;28;20202;-68
2023/08/11 08:08:40;;;;;;;3.80;1.52;;;;;;;41.31;12.44;100883.19;5021306;28;20214;-72
2023/08/11 08:11:08;;;;;;;2.17;1.67;;;;;;;41.68;12.54;100890.91;5029032;28;20715;-71
2023/08/11 08:13:36;;;;;;;2.58;1.38;;;;;;;41.65;11.57;100885.91;5025467;28;20210;-70
2023/08/11 08:16:04;;;;;;;3.25;1.45;;;;;;;41.41;11.40;100883.66;5029044;28;20229;-69
2023/08/11 08:18:32;;;;;;;4.82;1.30;;;;;;;41.47;11.78;100885.63;5031262;28;20206;-69
2023/08/11 08:21:01;;;;;;;1.20;1.10;;;;;;;41.08;11.00;100892.41;5032023;28;20229;-70
2023/08/11 08:23:30;;;;;;;2.25;1.00;;;;;;;40.97;11.08;100892.91;5025532;28;20202;-69
2023/08/11 08:25:58;;;;;;;1.88;1.17;;;;;;;40.95;11.21;100897.72;5031869;28;20229;-69
2023/08/11 08:28:26;;;;;;;1.63;1.25;;;;;;;41.04;11.10;100897.38;5030468;28;20206;-67
2023/08/11 08:30:54;;;;;;;2.38;1.25;;;;;;;40.71;11.04;100899.78;5029875;28;20206;-68
2023/08/11 08:33:22;;;;;;;1.85;1.25;;;;;;;40.46;11.89;100893.91;5029676;28;20256;-69
2023/08/11 08:35:50;;;;;;;2.80;1.20;;;;;;;40.29;12.18;100901.44;5031713;28;20242;-70
2023/08/11 08:38:20;;;;;;;1.92;1.08;;;;;;;39.71;12.26;100889.72;5030514;28;20210;-67
2023/08/11 08:40:48;;;;;;;2.83;1.27;;;;;;;38.71;13.38;100892.69;5029016;28;20217;-67
2023/08/11 08:43:16;;;;;;;3.20;1.25;;;;;;;36.86;15.16;100893.03;5028488;28;20234;-67
2023/08/11 08:45:45;;;;;;;5.03;1.60;;;;;;;34.86;17.32;100896.13;5024872;28;20214;-68
2023/08/11 08:48:17;;;;;;;5.03;1.70;;;;;;;33.20;18.28;100897.94;5029823;28;20203;-68
2023/08/11 08:50:45;;;;;;;3.10;1.38;;;;;;;31.84;19.63;100904.88;5031575;28;20242;-67
2023/08/11 08:53:13;;;;;;;1.73;1.52;;;;;;;30.89;20.77;100907.63;5031220;28;20210;-67
2023/08/11 08:55:43;;;;;;;3.22;1.70;;;;;;;29.88;21.94;100906.00;5030389;28;20202;-69
2023/08/11 08:58:14;;;;;;;2.75;1.27;;;;;;;28.90;22.86;100913.47;5029217;28;20302;-70
2023/08/11 09:00:43;;;;;;;1.70;1.60;;;;;;;28.20;23.96;100911.47;5025239;28;20206;-70
2023/08/11 09:03:12;;;;;;;2.83;1.42;;;;;;;27.82;25.24;100912.41;5024116;28;20676;-69
2023/08/11 09:05:41;;;;;;;5.18;1.40;;;;;;;27.75;25.90;100905.00;5022947;28;20294;-68
2023/08/11 09:08:09;;;;;;;3.10;1.48;;;;;;;27.75;26.33;100902.34;5032345;28;20191;-68
2023/08/11 09:10:37;;;;;;;3.75;1.70;;;;;;;27.75;26.58;100902.34;5029268;28;20213;-70
2023/08/11 09:13:07;;;;;;;2.25;1.38;;;;;;;27.67;26.51;100901.06;5028993;28;20727;-67
2023/08/11 09:15:35;;;;;;;2.80;1.48;;;;;;;27.84;26.51;100905.22;5025731;28;20217;-68
2023/08/11 09:18:03;;;;;;;2.10;1.38;;;;;;;28.23;26.35;100908.63;5022378;28;20723;-68
2023/08/11 09:20:31;;;;;;;1.70;1.30;;;;;;;28.87;25.35;100893.34;5027966;28;20226;-68
2023/08/11 09:22:59;;;;;;;1.63;1.38;;;;;;;29.74;23.98;100892.94;5026454;28;20657;-68
2023/08/11 09:25:28;;;;;;;2.40;1.30;;;;;;;30.82;22.77;100895.81;5030944;28;20576;-67
2023/08/11 09:27:58;;;;;;;2.67;1.60;;;;;;;31.75;20.40;100890.53;5026982;28;20574;-66
2023/08/11 09:30:30;;;;;;;1.65;1.30;;;;;;;32.46;19.97;100898.50;5034634;28;20624;-67
2023/08/11 09:33:00;;;;;;;2.00;1.27;;;;;;;32.93;18.62;100899.50;5016834;28;20205;-67
2023/08/11 09:35:28;;;;;;;2.28;1.30;;;;;;;33.13;18.62;100892.31;5031113;28;20210;-68
2023/08/11 09:37:57;;;;;;;1.77;1.17;;;;;;;33.00;18.37;100890.94;5022361;28;20220;-68
2023/08/11 09:40:26;;;;;;;3.22;1.27;;;;;;;32.58;19.47;100896.53;5033284;28;20627;-67
2023/08/11 09:42:55;;;;;;;2.78;1.60;;;;;;;32.17;19.92;100896.56;5027296;28;20721;-67
2023/08/11 09:45:23;;;;;;;1.83;1.00;;;;;;;31.76;20.63;100893.06;5030679;28;20253;-67
2023/08/11 09:47:52;;;;;;;2.20;1.40;;;;;;;31.24;20.94;100902.00;5028478;28;20222;-68
2023/08/11 09:50:21;;;;;;;2.00;1.20;;;;;;;30.79;21.30;100900.41;5036416;28;20207;-69
2023/08/11 09:52:50;;;;;;;2.95;1.15;;;;;;;30.57;21.95;100892.50;5029825;28;20669;-70
2023/08/11 09:55:20;;;;;;;2.97;1.33;;;;;;;30.57;22.35;100884.53;5035646;28;20198;-68
2023/08/11 09:57:49;;;;;;;3.03;1.30;;;;;;;30.62;22.23;100886.78;5033037;28;20215;-68
2023/08/11 10:00:19;;;;;;;3.20;1.40;;;;;;;30.97;21.50;100889.22;5029259;28;20210;-67
2023/08/11 10:02:57;;;;;;;1.17;1.00;;;;;;;31.19;21.38;100896.25;5026607;28;20294;-62
2023/08/11 10:05:26;;;;;;;2.05;1.42;;;;;;;31.48;20.54;100891.97;5029823;28;20689;-69
2023/08/11 10:07:59;;;;;;;2.03;1.20;;;;;;;31.15;21.01;100898.31;5030873;28;20221;-67
2023/08/11 10:10:28;;;;;;;3.90;1.48;;;;;;;30.69;22.16;100901.28;5030728;28;20644;-69
2023/08/11 10:13:01;;;;;;;4.00;1.50;;;;;;;30.87;21.96;100890.97;5032060;28;20199;-62
2023/08/11 10:15:31;;;;;;;1.75;1.20;;;;;;;31.49;21.46;100882.97;5034327;28;20294;-62
2023/08/11 10:18:01;;;;;;;3.45;1.30;;;;;;;32.13;20.29;100892.50;5030903;28;20217;-61
2023/08/11 10:20:30;;;;;;;2.00;1.20;;;;;;;31.92;21.47;100891.72;5029324;28;20261;-69
2023/08/11 10:22:58;;;;;;;3.03;1.15;;;;;;;31.72;21.64;100896.97;5032711;28;20207;-69
2023/08/11 10:25:27;;;;;;;1.73;1.27;;;;;;;31.66;20.48;100894.81;5034196;28;20647;-70
2023/08/11 10:27:58;;;;;;;3.55;1.15;;;;;;;30.89;21.36;100886.34;5030867;28;20223;-65
2023/08/11 10:30:26;;;;;;;2.72;1.30;;;;;;;30.09;22.49;100887.50;5032427;28;20221;-62
2023/08/11 10:33:03;;;;;;;2.20;1.52;;;;;;;30.75;22.20;100891.00;5033211;28;20210;-65
2023/08/11 10:35:48;;;;;;;2.90;1.63;;;;;;;31.71;21.08;100886.44;5034339;28;20220;-64
2023/08/11 10:38:24;;;;;;;2.40;1.38;;;;;;;31.17;21.18;100883.03;5025659;28;20302;-66
2023/08/11 10:40:57;;;;;;;4.72;1.17;;;;;;;29.91;22.15;100891.63;5027809;28;20565;-62
2023/08/11 10:43:31;;;;;;;3.88;1.23;;;;;;;29.29;23.30;100898.19;5031872;28;20602;-61
2023/08/11 10:46:15;;;;;;;1.98;1.38;;;;;;;29.93;22.97;100881.72;5032360;28;20244;-61
2023/08/11 10:48:44;;;;;;;2.50;1.20;;;;;;;30.98;22.19;100880.25;5030074;28;20210;-62
2023/08/11 10:51:28;;;;;;;2.75;1.55;;;;;;;31.36;20.88;100873.50;5029644;28;20282;-62
2023/08/11 10:53:58;;;;;;;2.78;1.42;;;;;;;30.45;22.13;100877.53;5029723;28;20203;-62
2023/08/11 10:56:34;;;;;;;3.45;1.13;;;;;;;29.40;23.58;100871.66;5031059;28;20357;-63
2023/08/11 10:59:13;;;;;;;1.40;1.00;;;;;;;29.79;23.03;100869.53;5035537;28;20744;-62
2023/08/11 11:01:45;;;;;;;2.50;1.17;;;;;;;30.86;22.03;100870.63;5031534;28;20662;-62
2023/08/11 11:04:14;;;;;;;2.90;1.10;;;;;;;31.68;20.42;100868.91;5022944;28;20294;-62
2023/08/11 11:06:45;;;;;;;1.02;0.90;;;;;;;32.46;19.66;100864.66;5030536;28;20238;-65
2023/08/11 11:09:14;;;;;;;1.38;1.15;;;;;;;32.94;17.95;100863.81;5035277;28;20190;-63
2023/08/11 11:11:43;;;;;;;2.30;1.40;;;;;;;33.17;18.33;100872.34;5031099;28;20240;-62
2023/08/11 11:14:13;;;;;;;1.20;1.00;;;;;;;32.80;19.30;100869.56;5031489;28;20253;-64
2023/08/11 11:16:42;;;;;;;2.35;1.00;;;;;;;32.16;20.03;100870.91;5031086;28;20203;-68
2023/08/11 11:19:10;;;;;;;2.00;1.20;;;;;;;32.46;19.76;100879.81;5032625;28;20756;-68
2023/08/11 11:21:41;;;;;;;2.25;1.23;;;;;;;32.64;19.11;100863.97;5033140;28;20214;-68
2023/08/11 11:24:11;;;;;;;1.23;0.93;;;;;;;32.68;18.90;100862.69;5027013;28;20211;-68
2023/08/11 11:26:42;;;;;;;2.65;1.27;;;;;;;32.74;19.21;100862.13;5035254;28;20213;-68
2023/08/11 11:29:10;;;;;;;2.00;1.00;;;;;;;32.73;19.71;100860.44;5033140;28;20244;-68
2023/08/11 11:31:41;;;;;;;1.83;1.15;;;;;;;32.65;19.66;100857.63;5032852;28;20219;-69